Lansdale, PA

7:25 AM EST on November 21, 2014 (GMT -0500)
Towamencin | Change Station
CLOSE
Current Station
Personal Weather Station
Location: Towamencin, PA
Elevation: 238 ft
Nearby Weather Stations

Elev 238 ft 40.23 °N, 75.32 °W | Updated 5 minutes ago

Clear
Clear
25.9 °F
Feels Like 19 °F
N
5.8
Wind Variable Wind from WNW
Gusts 9.2 mph

Today
High -- | Low -- °F
--% Chance of Precip.
Yesterday
High -- | Low -- °F
Precip. -- in
6:53 AM 4:40 PM
Waning Crescent, 1% visible
Pressure 30.26 in
Visibility 10.0 miles
Clouds Clear
Windchill 19 °F
Dew Point 22 °F
Humidity 84%
Rainfall 0.00 in
Snow Depth Not available.
UV 0 out of 12
Pollen .10 out of 12
Air Quality Not available.
Flu Activity Not available.
METAR KLOM 211215Z AUTO 26003KT 10SM CLR M02/M11 A3026 RMK AO1

More Conditions Fewer Conditions

Pressure 30.26 in
Visibility 10.0 miles
Clouds Clear
Windchill 19 °F
Dew Point 22 °F
Humidity 84%
Rainfall 0.00 in
Snow Depth Not available.
UV 0 out of 12
Pollen .10 out of 12
Air Quality Not available.
Flu Activity Not available.
METAR KLOM 211215Z AUTO 26003KT 10SM CLR M02/M11 A3026 RMK AO1

More Conditions Fewer Conditions

10-Day Weather Forecast

Almanac

Astronomy

Nov. 21, 2014 Rise Set
Actual Time
Civil Twilight
Nautical Twilight
Astronomical Twilight
Moon
Length of Visible Light
Length of Day
Tomorrow will be .
, % of the Moon is Illuminated

Today's Extremes

State Highs State Lows

Community

WunderPhotos

Upload Photos

1,772,653 photos uploaded!

WunderBlogs® & News

Nearby

Air Quality

  Air Quality AQ Index Pollutant
Not available.

Snow Depth

Station Depth Elevation

Earthquake Activity

City Distance Mag. Time & Date
Minimum magnitude displayed is 2.5.

Coastal Water Temperatures

Place Temperature

Nearby Weather Stations